sensor_id;sensor_type;location;lat;lon;timestamp;temperature;humidity
25170;DHT22;13129;48.012;10.352;2023-01-31T04:31:46;-1.30;99.90
25170;DHT22;13129;48.012;10.352;2023-01-31T04:34:13;-1.30;99.90
25170;DHT22;13129;48.012;10.352;2023-01-31T04:36:38;-1.30;99.90
25170;DHT22;13129;48.012;10.352;2023-01-31T04:39:08;-1.40;99.90
25170;DHT22;13129;48.012;10.352;2023-01-31T04:41:36;-1.40;99.90
25170;DHT22;13129;48.012;10.352;2023-01-31T04:44:02;-1.30;99.90
25170;DHT22;13129;48.012;10.352;2023-01-31T04:46:28;-1.30;99.90
25170;DHT22;13129;48.012;10.352;2023-01-31T04:48:53;-1.40;99.90
25170;DHT22;13129;48.012;10.352;2023-01-31T04:51:19;-1.20;99.90
25170;DHT22;13129;48.012;10.352;2023-01-31T04:53:45;-1.40;99.90
25170;DHT22;13129;48.012;10.352;2023-01-31T04:56:10;-1.50;99.90
25170;DHT22;13129;48.012;10.352;2023-01-31T04:58:36;-1.50;99.90
25170;DHT22;13129;48.012;10.352;2023-01-31T05:01:02;-1.50;99.90
25170;DHT22;13129;48.012;10.352;2023-01-31T05:03:27;-1.50;99.90
25170;DHT22;13129;48.012;10.352;2023-01-31T05:05:53;-1.50;99.90
25170;DHT22;13129;48.012;10.352;2023-01-31T05:08:18;-1.50;99.90
25170;DHT22;13129;48.012;10.352;2023-01-31T05:10:44;-1.60;99.90
25170;DHT22;13129;48.012;10.352;2023-01-31T05:13:10;-1.60;99.90
25170;DHT22;13129;48.012;10.352;2023-01-31T05:15:36;-1.60;99.90
25170;DHT22;13129;48.012;10.352;2023-01-31T05:18:02;-1.60;99.90
25170;DHT22;13129;48.012;10.352;2023-01-31T05:20:33;-1.60;99.90
25170;DHT22;13129;48.012;10.352;2023-01-31T05:23:01;-1.60;99.90
25170;DHT22;13129;48.012;10.352;2023-01-31T05:25:27;-1.70;99.90
25170;DHT22;13129;48.012;10.352;2023-01-31T05:27:52;-1.70;99.90
25170;DHT22;13129;48.012;10.352;2023-01-31T05:30:18;-1.70;99.90
25170;DHT22;13129;48.012;10.352;2023-01-31T05:32:45;-1.70;99.90
25170;DHT22;13129;48.012;10.352;2023-01-31T05:35:12;-1.70;99.90
25170;DHT22;13129;48.012;10.352;2023-01-31T05:37:38;-1.70;99.90
25170;DHT22;13129;48.012;10.352;2023-01-31T05:40:11;-1.70;99.90
25170;DHT22;13129;48.012;10.352;2023-01-31T05:42:37;-1.60;99.90
25170;DHT22;13129;48.012;10.352;2023-01-31T05:45:03;-1.50;99.90
25170;DHT22;13129;48.012;10.352;2023-01-31T05:47:29;-1.40;99.90
25170;DHT22;13129;48.012;10.352;2023-01-31T05:49:54;-1.40;99.90
25170;DHT22;13129;48.012;10.352;2023-01-31T05:52:20;-1.50;99.90
25170;DHT22;13129;48.012;10.352;2023-01-31T05:54:45;-1.40;99.90
25170;DHT22;13129;48.012;10.352;2023-01-31T05:57:11;-1.60;99.90
25170;DHT22;13129;48.012;10.352;2023-01-31T05:59:38;-1.70;99.90
25170;DHT22;13129;48.012;10.352;2023-01-31T06:02:04;-1.70;99.90
25170;DHT22;13129;48.012;10.352;2023-01-31T06:04:30;-1.70;99.90
25170;DHT22;13129;48.012;10.352;2023-01-31T06:06:56;-1.70;99.90
25170;DHT22;13129;48.012;10.352;2023-01-31T06:09:21;-1.80;99.90
25170;DHT22;13129;48.012;10.352;2023-01-31T06:11:47;-1.80;99.90
25170;DHT22;13129;48.012;10.352;2023-01-31T06:14:15;-1.80;99.90
25170;DHT22;13129;48.012;10.352;2023-01-31T06:16:41;-1.80;99.90
25170;DHT22;13129;48.012;10.352;2023-01-31T06:19:07;-1.80;99.90
25170;DHT22;13129;48.012;10.352;2023-01-31T06:21:34;-1.60;99.90
25170;DHT22;13129;48.012;10.352;2023-01-31T06:24:00;-1.80;99.90
25170;DHT22;13129;48.012;10.352;2023-01-31T06:26:26;-1.80;99.90
25170;DHT22;13129;48.012;10.352;2023-01-31T06:28:51;-1.80;99.90
25170;DHT22;13129;48.012;10.352;2023-01-31T06:31:17;-1.90;99.90
25170;DHT22;13129;48.012;10.352;2023-01-31T06:33:43;-1.90;99.90
25170;DHT22;13129;48.012;10.352;2023-01-31T06:36:11;-1.90;99.90
25170;DHT22;13129;48.012;10.352;2023-01-31T06:38:36;-1.90;99.90
25170;DHT22;13129;48.012;10.352;2023-01-31T06:41:02;-1.90;99.90
25170;DHT22;13129;48.012;10.352;2023-01-31T06:43:28;-1.90;99.90
25170;DHT22;13129;48.012;10.352;2023-01-31T06:45:54;-1.90;99.90
25170;DHT22;13129;48.012;10.352;2023-01-31T06:48:19;-1.90;99.90
25170;DHT22;13129;48.012;10.352;2023-01-31T06:50:45;-1.90;99.90
25170;DHT22;13129;48.012;10.352;2023-01-31T06:53:11;-1.80;99.90
25170;DHT22;13129;48.012;10.352;2023-01-31T06:55:37;-1.80;99.90
25170;DHT22;13129;48.012;10.352;2023-01-31T06:58:03;-1.70;99.90
25170;DHT22;13129;48.012;10.352;2023-01-31T07:00:29;-1.60;99.90
25170;DHT22;13129;48.012;10.352;2023-01-31T07:02:54;-1.60;99.90
25170;DHT22;13129;48.012;10.352;2023-01-31T07:05:21;-1.50;99.90
25170;DHT22;13129;48.012;10.352;2023-01-31T07:07:47;-1.40;99.90
25170;DHT22;13129;48.012;10.352;2023-01-31T07:10:15;-1.30;99.90
25170;DHT22;13129;48.012;10.352;2023-01-31T07:12:40;-1.30;99.90
25170;DHT22;13129;48.012;10.352;2023-01-31T07:15:07;-1.20;99.90
25170;DHT22;13129;48.012;10.352;2023-01-31T07:17:33;-1.20;99.90
25170;DHT22;13129;48.012;10.352;2023-01-31T07:19:59;-1.10;99.90
25170;DHT22;13129;48.012;10.352;2023-01-31T07:22:24;-0.90;99.90
25170;DHT22;13129;48.012;10.352;2023-01-31T07:24:50;-1.00;99.90
25170;DHT22;13129;48.012;10.352;2023-01-31T07:27:16;-0.90;99.90
25170;DHT22;13129;48.012;10.352;2023-01-31T07:29:42;-0.80;99.90
25170;DHT22;13129;48.012;10.352;2023-01-31T07:32:09;-0.60;99.90
25170;DHT22;13129;48.012;10.352;2023-01-31T07:34:35;-0.50;99.90
25170;DHT22;13129;48.012;10.352;2023-01-31T07:37:00;-0.20;99.90
25170;DHT22;13129;48.012;10.352;2023-01-31T07:39:27;-0.20;99.90
25170;DHT22;13129;48.012;10.352;2023-01-31T07:41:59;-0.10;99.90
25170;DHT22;13129;48.012;10.352;2023-01-31T07:44:25;0.00;99.90
25170;DHT22;13129;48.012;10.352;2023-01-31T07:46:51;0.00;99.90
25170;DHT22;13129;48.012;10.352;2023-01-31T07:49:19;0.10;99.90
25170;DHT22;13129;48.012;10.352;2023-01-31T07:51:44;0.30;99.90
25170;DHT22;13129;48.012;10.352;2023-01-31T07:54:11;0.30;99.90
25170;DHT22;13129;48.012;10.352;2023-01-31T07:56:37;0.30;99.90
25170;DHT22;13129;48.012;10.352;2023-01-31T07:59:05;0.40;99.90
25170;DHT22;13129;48.012;10.352;2023-01-31T08:01:30;0.40;99.90
25170;DHT22;13129;48.012;10.352;2023-01-31T08:04:15;0.40;99.90
25170;DHT22;13129;48.012;10.352;2023-01-31T08:06:42;0.50;99.90
25170;DHT22;13129;48.012;10.352;2023-01-31T08:09:09;0.50;99.90
25170;DHT22;13129;48.012;10.352;2023-01-31T08:11:35;0.50;99.90
25170;DHT22;13129;48.012;10.352;2023-01-31T08:14:00;0.60;99.90
25170;DHT22;13129;48.012;10.352;2023-01-31T08:16:31;0.70;99.90
25170;DHT22;13129;48.012;10.352;2023-01-31T08:19:01;0.70;99.90
25170;DHT22;13129;48.012;10.352;2023-01-31T08:21:27;1.00;99.90
25170;DHT22;13129;48.012;10.352;2023-01-31T08:23:53;1.20;99.90
25170;DHT22;13129;48.012;10.352;2023-01-31T08:26:20;1.50;99.90
25170;DHT22;13129;48.012;10.352;2023-01-31T08:28:47;1.80;99.90
25170;DHT22;13129;48.012;10.352;2023-01-31T08:31:16;2.00;99.90
25170;DHT22;13129;48.012;10.352;2023-01-31T08:33:42;2.10;99.90
25170;DHT22;13129;48.012;10.352;2023-01-31T08:38:42;2.40;99.90
25170;DHT22;13129;48.012;10.352;2023-01-31T08:41:09;2.60;99.90
25170;DHT22;13129;48.012;10.352;2023-01-31T08:43:35;2.70;99.90
25170;DHT22;13129;48.012;10.352;2023-01-31T08:46:02;3.00;99.90
25170;DHT22;13129;48.012;10.352;2023-01-31T08:48:31;3.10;99.90
25170;DHT22;13129;48.012;10.352;2023-01-31T08:51:04;3.30;99.90
25170;DHT22;13129;48.012;10.352;2023-01-31T08:53:31;3.10;99.90
25170;DHT22;13129;48.012;10.352;2023-01-31T08:56:02;3.00;99.90
25170;DHT22;13129;48.012;10.352;2023-01-31T08:58:29;3.00;99.90
25170;DHT22;13129;48.012;10.352;2023-01-31T09:01:03;3.70;99.90
25170;DHT22;13129;48.012;10.352;2023-01-31T09:03:29;4.10;99.90
25170;DHT22;13129;48.012;10.352;2023-01-31T09:05:58;4.20;99.90
25170;DHT22;13129;48.012;10.352;2023-01-31T09:08:24;4.20;99.90
25170;DHT22;13129;48.012;10.352;2023-01-31T09:10:53;4.00;99.90
25170;DHT22;13129;48.012;10.352;2023-01-31T09:13:19;3.90;99.90
25170;DHT22;13129;48.012;10.352;2023-01-31T09:15:45;3.70;99.90
25170;DHT22;13129;48.012;10.352;2023-01-31T09:18:11;3.70;99.90
25170;DHT22;13129;48.012;10.352;2023-01-31T09:20:36;3.60;99.90
25170;DHT22;13129;48.012;10.352;2023-01-31T09:23:02;3.90;99.90
25170;DHT22;13129;48.012;10.352;2023-01-31T09:25:28;4.60;99.90
25170;DHT22;13129;48.012;10.352;2023-01-31T09:27:54;5.50;99.90
25170;DHT22;13129;48.012;10.352;2023-01-31T09:30:20;6.30;99.90
25170;DHT22;13129;48.012;10.352;2023-01-31T09:32:46;7.10;99.90
25170;DHT22;13129;48.012;10.352;2023-01-31T09:35:14;7.60;99.90
25170;DHT22;13129;48.012;10.352;2023-01-31T09:37:41;8.90;99.90
25170;DHT22;13129;48.012;10.352;2023-01-31T09:40:07;10.10;99.90
25170;DHT22;13129;48.012;10.352;2023-01-31T09:42:44;10.60;99.90
25170;DHT22;13129;48.012;10.352;2023-01-31T09:45:15;11.10;99.90
25170;DHT22;13129;48.012;10.352;2023-01-31T09:47:47;12.10;99.90
25170;DHT22;13129;48.012;10.352;2023-01-31T09:50:34;13.10;99.90
25170;DHT22;13129;48.012;10.352;2023-01-31T09:53:01;13.30;95.50
25170;DHT22;13129;48.012;10.352;2023-01-31T09:55:35;13.10;93.90
25170;DHT22;13129;48.012;10.352;2023-01-31T10:01:33;12.80;92.00
25170;DHT22;13129;48.012;10.352;2023-01-31T10:06:24;11.90;91.30
25170;DHT22;13129;48.012;10.352;2023-01-31T10:09:11;10.80;91.60
25170;DHT22;13129;48.012;10.352;2023-01-31T10:11:43;9.70;93.00
25170;DHT22;13129;48.012;10.352;2023-01-31T10:15:10;8.50;93.80
25170;DHT22;13129;48.012;10.352;2023-01-31T10:25:20;6.90;97.70
25170;DHT22;13129;48.012;10.352;2023-01-31T10:27:54;7.30;98.40
25170;DHT22;13129;48.012;10.352;2023-01-31T10:30:26;8.50;98.20
25170;DHT22;13129;48.012;10.352;2023-01-31T10:33:01;10.00;95.30
25170;DHT22;13129;48.012;10.352;2023-01-31T10:35:32;11.20;94.50
25170;DHT22;13129;48.012;10.352;2023-01-31T10:38:17;12.80;92.20
25170;DHT22;13129;48.012;10.352;2023-01-31T10:40:50;13.70;88.60
25170;DHT22;13129;48.012;10.352;2023-01-31T10:43:19;14.60;88.40
25170;DHT22;13129;48.012;10.352;2023-01-31T10:45:46;14.90;82.10
25170;DHT22;13129;48.012;10.352;2023-01-31T10:50:52;13.60;82.10
25170;DHT22;13129;48.012;10.352;2023-01-31T10:58:46;10.40;88.30
25170;DHT22;13129;48.012;10.352;2023-01-31T11:01:12;9.20;89.90
25170;DHT22;13129;48.012;10.352;2023-01-31T11:04:02;8.10;91.40
25170;DHT22;13129;48.012;10.352;2023-01-31T11:06:32;7.20;92.90
25170;DHT22;13129;48.012;10.352;2023-01-31T11:09:00;6.60;94.00
25170;DHT22;13129;48.012;10.352;2023-01-31T11:11:35;6.10;94.80
25170;DHT22;13129;48.012;10.352;2023-01-31T11:14:37;5.80;95.80
25170;DHT22;13129;48.012;10.352;2023-01-31T11:17:08;5.60;96.50
25170;DHT22;13129;48.012;10.352;2023-01-31T11:20:05;5.50;97.00
25170;DHT22;13129;48.012;10.352;2023-01-31T11:22:32;5.50;97.30
25170;DHT22;13129;48.012;10.352;2023-01-31T11:25:01;5.40;97.50
25170;DHT22;13129;48.012;10.352;2023-01-31T11:27:48;5.30;97.60
25170;DHT22;13129;48.012;10.352;2023-01-31T11:30:27;5.10;97.90
25170;DHT22;13129;48.012;10.352;2023-01-31T11:33:03;5.00;98.20
25170;DHT22;13129;48.012;10.352;2023-01-31T11:35:34;4.90;98.70
25170;DHT22;13129;48.012;10.352;2023-01-31T11:40:38;5.00;99.10
25170;DHT22;13129;48.012;10.352;2023-01-31T11:43:20;4.90;99.10
25170;DHT22;13129;48.012;10.352;2023-01-31T11:45:56;4.90;99.50
25170;DHT22;13129;48.012;10.352;2023-01-31T11:48:26;4.80;99.60
25170;DHT22;13129;48.012;10.352;2023-01-31T11:50:56;4.80;99.70
25170;DHT22;13129;48.012;10.352;2023-01-31T11:53:30;4.70;99.90
25170;DHT22;13129;48.012;10.352;2023-01-31T11:56:10;4.60;99.90
25170;DHT22;13129;48.012;10.352;2023-01-31T11:58:39;4.60;99.90
25170;DHT22;13129;48.012;10.352;2023-01-31T12:01:11;4.60;99.90
25170;DHT22;13129;48.012;10.352;2023-01-31T12:03:38;4.60;99.90
25170;DHT22;13129;48.012;10.352;2023-01-31T12:06:08;4.50;99.90
25170;DHT22;13129;48.012;10.352;2023-01-31T12:08:37;4.40;99.90
25170;DHT22;13129;48.012;10.352;2023-01-31T12:13:51;4.50;99.90
25170;DHT22;13129;48.012;10.352;2023-01-31T12:16:20;4.50;99.90
25170;DHT22;13129;48.012;10.352;2023-01-31T12:21:49;4.60;99.90
25170;DHT22;13129;48.012;10.352;2023-01-31T12:30:02;4.90;99.90
25170;DHT22;13129;48.012;10.352;2023-01-31T12:51:39;5.50;99.90
25170;DHT22;13129;48.012;10.352;2023-01-31T12:56:51;5.90;99.90
25170;DHT22;13129;48.012;10.352;2023-01-31T12:59:55;5.90;99.90
25170;DHT22;13129;48.012;10.352;2023-01-31T13:07:53;5.80;99.90
25170;DHT22;13129;48.012;10.352;2023-01-31T13:10:44;5.70;99.90
25170;DHT22;13129;48.012;10.352;2023-01-31T13:13:23;5.70;99.90
25170;DHT22;13129;48.012;10.352;2023-01-31T13:16:13;5.50;99.90
25170;DHT22;13129;48.012;10.352;2023-01-31T13:18:41;5.40;99.90
25170;DHT22;13129;48.012;10.352;2023-01-31T13:21:09;5.30;99.90
25170;DHT22;13129;48.012;10.352;2023-01-31T13:24:20;5.30;99.90
25170;DHT22;13129;48.012;10.352;2023-01-31T13:26:55;5.40;99.90
25170;DHT22;13129;48.012;10.352;2023-01-31T13:29:49;5.60;99.90
25170;DHT22;13129;48.012;10.352;2023-01-31T13:32:38;5.60;99.90
25170;DHT22;13129;48.012;10.352;2023-01-31T13:35:27;5.70;99.90
25170;DHT22;13129;48.012;10.352;2023-01-31T13:37:59;5.50;99.90
25170;DHT22;13129;48.012;10.352;2023-01-31T13:40:37;5.40;99.90
25170;DHT22;13129;48.012;10.352;2023-01-31T13:43:13;5.10;99.90
25170;DHT22;13129;48.012;10.352;2023-01-31T13:45:55;5.00;99.90
25170;DHT22;13129;48.012;10.352;2023-01-31T13:54:40;4.30;99.90
25170;DHT22;13129;48.012;10.352;2023-01-31T13:57:22;4.20;99.90
25170;DHT22;13129;48.012;10.352;2023-01-31T14:00:02;4.10;99.90
25170;DHT22;13129;48.012;10.352;2023-01-31T14:02:28;4.00;99.90
25170;DHT22;13129;48.012;10.352;2023-01-31T14:05:04;3.90;99.90
25170;DHT22;13129;48.012;10.352;2023-01-31T14:07:33;3.90;99.90
25170;DHT22;13129;48.012;10.352;2023-01-31T14:12:31;4.00;99.90
25170;DHT22;13129;48.012;10.352;2023-01-31T14:15:00;3.90;99.90
25170;DHT22;13129;48.012;10.352;2023-01-31T14:22:35;3.80;99.90
25170;DHT22;13129;48.012;10.352;2023-01-31T14:30:34;3.50;99.90
25170;DHT22;13129;48.012;10.352;2023-01-31T14:33:02;3.50;99.90
25170;DHT22;13129;48.012;10.352;2023-01-31T14:46:20;3.20;99.90
25170;DHT22;13129;48.012;10.352;2023-01-31T14:57:20;3.10;99.90
25170;DHT22;13129;48.012;10.352;2023-01-31T15:00:14;3.10;99.90
25170;DHT22;13129;48.012;10.352;2023-01-31T15:08:29;3.00;99.90
25170;DHT22;13129;48.012;10.352;2023-01-31T15:11:34;2.90;99.90
25170;DHT22;13129;48.012;10.352;2023-01-31T15:13:59;2.90;99.90
25170;DHT22;13129;48.012;10.352;2023-01-31T15:16:33;3.00;99.90
25170;DHT22;13129;48.012;10.352;2023-01-31T15:19:11;2.90;99.90
25170;DHT22;13129;48.012;10.352;2023-01-31T15:21:44;2.90;99.90
25170;DHT22;13129;48.012;10.352;2023-01-31T15:24:25;2.90;99.90
25170;DHT22;13129;48.012;10.352;2023-01-31T15:26:53;2.90;99.90
25170;DHT22;13129;48.012;10.352;2023-01-31T15:29:24;2.80;99.90
25170;DHT22;13129;48.012;10.352;2023-01-31T15:31:56;2.80;99.90
25170;DHT22;13129;48.012;10.352;2023-01-31T15:34:35;2.70;99.90
25170;DHT22;13129;48.012;10.352;2023-01-31T15:37:27;2.60;99.90
25170;DHT22;13129;48.012;10.352;2023-01-31T15:42:29;2.50;99.90
25170;DHT22;13129;48.012;10.352;2023-01-31T15:45:31;2.60;99.90
25170;DHT22;13129;48.012;10.352;2023-01-31T15:48:15;2.40;99.90
25170;DHT22;13129;48.012;10.352;2023-01-31T15:50:57;2.40;99.90
25170;DHT22;13129;48.012;10.352;2023-01-31T15:53:28;2.40;99.90
25170;DHT22;13129;48.012;10.352;2023-01-31T15:55:56;2.40;99.90
25170;DHT22;13129;48.012;10.352;2023-01-31T15:58:25;2.40;99.90
25170;DHT22;13129;48.012;10.352;2023-01-31T16:00:56;2.30;99.90
25170;DHT22;13129;48.012;10.352;2023-01-31T16:03:29;2.30;99.90
25170;DHT22;13129;48.012;10.352;2023-01-31T16:05:57;2.40;99.90
25170;DHT22;13129;48.012;10.352;2023-01-31T16:08:35;2.20;99.90
25170;DHT22;13129;48.012;10.352;2023-01-31T16:11:03;2.20;99.90
25170;DHT22;13129;48.012;10.352;2023-01-31T16:13:30;2.20;99.90
25170;DHT22;13129;48.012;10.352;2023-01-31T16:15:56;2.10;99.90
25170;DHT22;13129;48.012;10.352;2023-01-31T16:18:23;2.00;99.90
25170;DHT22;13129;48.012;10.352;2023-01-31T16:20:54;2.00;99.90
25170;DHT22;13129;48.012;10.352;2023-01-31T16:23:36;2.00;99.90
25170;DHT22;13129;48.012;10.352;2023-01-31T16:28:46;2.00;99.90
25170;DHT22;13129;48.012;10.352;2023-01-31T16:31:16;2.00;99.90
25170;DHT22;13129;48.012;10.352;2023-01-31T16:33:55;2.00;99.90
25170;DHT22;13129;48.012;10.352;2023-01-31T16:36:51;2.10;99.90
25170;DHT22;13129;48.012;10.352;2023-01-31T16:42:21;2.10;99.90
25170;DHT22;13129;48.012;10.352;2023-01-31T16:44:50;2.10;99.90
25170;DHT22;13129;48.012;10.352;2023-01-31T16:52:43;2.10;99.90
25170;DHT22;13129;48.012;10.352;2023-01-31T16:55:20;2.10;99.90
25170;DHT22;13129;48.012;10.352;2023-01-31T16:57:46;2.10;99.90
25170;DHT22;13129;48.012;10.352;2023-01-31T17:02:56;2.10;99.90
25170;DHT22;13129;48.012;10.352;2023-01-31T17:07:55;2.10;99.90
25170;DHT22;13129;48.012;10.352;2023-01-31T17:10:27;2.00;99.90
25170;DHT22;13129;48.012;10.352;2023-01-31T17:13:06;2.00;99.90
25170;DHT22;13129;48.012;10.352;2023-01-31T17:15:39;2.10;99.90
25170;DHT22;13129;48.012;10.352;2023-01-31T17:18:05;2.10;99.90
25170;DHT22;13129;48.012;10.352;2023-01-31T17:20:30;2.10;99.90
25170;DHT22;13129;48.012;10.352;2023-01-31T17:22:56;2.10;99.90
25170;DHT22;13129;48.012;10.352;2023-01-31T17:25:29;2.00;99.90
25170;DHT22;13129;48.012;10.352;2023-01-31T17:27:56;2.00;99.90
25170;DHT22;13129;48.012;10.352;2023-01-31T17:30:21;2.00;99.90
25170;DHT22;13129;48.012;10.352;2023-01-31T17:32:47;2.00;99.90
25170;DHT22;13129;48.012;10.352;2023-01-31T17:35:26;1.90;99.90
25170;DHT22;13129;48.012;10.352;2023-01-31T17:37:55;1.90;99.90
25170;DHT22;13129;48.012;10.352;2023-01-31T17:40:21;1.90;99.90
25170;DHT22;13129;48.012;10.352;2023-01-31T17:42:46;1.90;99.90
25170;DHT22;13129;48.012;10.352;2023-01-31T17:45:15;1.80;99.90
25170;DHT22;13129;48.012;10.352;2023-01-31T17:47:42;1.90;99.90
25170;DHT22;13129;48.012;10.352;2023-01-31T17:50:28;1.80;99.90
25170;DHT22;13129;48.012;10.352;2023-01-31T17:52:55;1.90;99.90
25170;DHT22;13129;48.012;10.352;2023-01-31T17:55:21;1.80;99.90
25170;DHT22;13129;48.012;10.352;2023-01-31T17:57:48;1.90;99.90
25170;DHT22;13129;48.012;10.352;2023-01-31T18:00:15;1.80;99.90
25170;DHT22;13129;48.012;10.352;2023-01-31T18:02:41;1.80;99.90
25170;DHT22;13129;48.012;10.352;2023-01-31T18:05:08;1.90;99.90
25170;DHT22;13129;48.012;10.352;2023-01-31T18:07:34;1.90;99.90
25170;DHT22;13129;48.012;10.352;2023-01-31T18:10:03;1.90;99.90
25170;DHT22;13129;48.012;10.352;2023-01-31T18:12:29;1.90;99.90
25170;DHT22;13129;48.012;10.352;2023-01-31T18:14:55;1.90;99.90
25170;DHT22;13129;48.012;10.352;2023-01-31T18:17:21;1.90;99.90
25170;DHT22;13129;48.012;10.352;2023-01-31T18:19:46;1.90;99.90
25170;DHT22;13129;48.012;10.352;2023-01-31T18:22:12;2.00;99.90
25170;DHT22;13129;48.012;10.352;2023-01-31T18:24:38;1.90;99.90
25170;DHT22;13129;48.012;10.352;2023-01-31T18:27:05;2.00;99.90
25170;DHT22;13129;48.012;10.352;2023-01-31T18:29:30;2.00;99.90
25170;DHT22;13129;48.012;10.352;2023-01-31T18:31:56;2.00;99.90
25170;DHT22;13129;48.012;10.352;2023-01-31T18:34:27;1.90;99.90
25170;DHT22;13129;48.012;10.352;2023-01-31T18:36:52;1.90;99.90
25170;DHT22;13129;48.012;10.352;2023-01-31T18:39:18;1.90;99.90
25170;DHT22;13129;48.012;10.352;2023-01-31T18:41:44;1.90;99.90
25170;DHT22;13129;48.012;10.352;2023-01-31T18:44:09;1.90;99.90
25170;DHT22;13129;48.012;10.352;2023-01-31T18:46:35;1.90;99.90
25170;DHT22;13129;48.012;10.352;2023-01-31T18:49:01;1.90;99.90
25170;DHT22;13129;48.012;10.352;2023-01-31T18:51:26;1.90;99.90
25170;DHT22;13129;48.012;10.352;2023-01-31T18:53:52;1.90;99.90
25170;DHT22;13129;48.012;10.352;2023-01-31T18:56:19;2.00;99.90
25170;DHT22;13129;48.012;10.352;2023-01-31T18:58:46;2.00;99.90
25170;DHT22;13129;48.012;10.352;2023-01-31T19:01:16;2.00;99.90
25170;DHT22;13129;48.012;10.352;2023-01-31T19:03:44;1.90;99.90
25170;DHT22;13129;48.012;10.352;2023-01-31T19:06:16;2.00;99.90
25170;DHT22;13129;48.012;10.352;2023-01-31T19:08:46;1.90;99.90
25170;DHT22;13129;48.012;10.352;2023-01-31T19:11:13;1.90;99.90
25170;DHT22;13129;48.012;10.352;2023-01-31T19:13:41;2.00;99.90
25170;DHT22;13129;48.012;10.352;2023-01-31T19:16:11;1.90;99.90
25170;DHT22;13129;48.012;10.352;2023-01-31T19:18:38;1.90;99.90
25170;DHT22;13129;48.012;10.352;2023-01-31T19:21:17;2.00;99.90
25170;DHT22;13129;48.012;10.352;2023-01-31T19:23:43;1.90;99.90
25170;DHT22;13129;48.012;10.352;2023-01-31T19:26:10;1.90;99.90
25170;DHT22;13129;48.012;10.352;2023-01-31T19:28:37;2.00;99.90
25170;DHT22;13129;48.012;10.352;2023-01-31T19:31:11;2.00;99.90
25170;DHT22;13129;48.012;10.352;2023-01-31T19:33:37;1.90;99.90
25170;DHT22;13129;48.012;10.352;2023-01-31T19:36:14;2.00;99.90
25170;DHT22;13129;48.012;10.352;2023-01-31T19:38:40;2.00;99.90
25170;DHT22;13129;48.012;10.352;2023-01-31T19:41:08;2.00;99.90
25170;DHT22;13129;48.012;10.352;2023-01-31T19:43:34;2.00;99.90
25170;DHT22;13129;48.012;10.352;2023-01-31T19:46:00;2.00;99.90
25170;DHT22;13129;48.012;10.352;2023-01-31T19:48:26;2.00;99.90
25170;DHT22;13129;48.012;10.352;2023-01-31T19:50:55;2.00;99.90
25170;DHT22;13129;48.012;10.352;2023-01-31T19:53:22;2.00;99.90
25170;DHT22;13129;48.012;10.352;2023-01-31T19:55:51;2.00;99.90
25170;DHT22;13129;48.012;10.352;2023-01-31T19:58:19;2.00;99.90
25170;DHT22;13129;48.012;10.352;2023-01-31T20:00:44;2.00;99.90
25170;DHT22;13129;48.012;10.352;2023-01-31T20:03:11;2.00;99.90
25170;DHT22;13129;48.012;10.352;2023-01-31T20:05:36;1.90;99.90
25170;DHT22;13129;48.012;10.352;2023-01-31T20:08:03;1.90;99.90
25170;DHT22;13129;48.012;10.352;2023-01-31T20:10:29;2.00;99.90
25170;DHT22;13129;48.012;10.352;2023-01-31T20:12:55;2.00;99.90
25170;DHT22;13129;48.012;10.352;2023-01-31T20:15:21;2.00;99.90
25170;DHT22;13129;48.012;10.352;2023-01-31T20:17:47;2.00;99.90
25170;DHT22;13129;48.012;10.352;2023-01-31T20:20:12;1.90;99.90
25170;DHT22;13129;48.012;10.352;2023-01-31T20:22:39;1.90;99.90
25170;DHT22;13129;48.012;10.352;2023-01-31T20:25:05;1.90;99.90
25170;DHT22;13129;48.012;10.352;2023-01-31T20:27:31;1.80;99.90
25170;DHT22;13129;48.012;10.352;2023-01-31T20:29:58;1.80;99.90
25170;DHT22;13129;48.012;10.352;2023-01-31T20:32:24;1.70;99.90
25170;DHT22;13129;48.012;10.352;2023-01-31T20:34:51;1.60;99.90
25170;DHT22;13129;48.012;10.352;2023-01-31T20:37:16;1.70;99.90
25170;DHT22;13129;48.012;10.352;2023-01-31T20:39:42;1.50;99.90
25170;DHT22;13129;48.012;10.352;2023-01-31T20:42:08;1.60;99.90
25170;DHT22;13129;48.012;10.352;2023-01-31T20:44:35;1.50;99.90
25170;DHT22;13129;48.012;10.352;2023-01-31T20:47:01;1.60;99.90
25170;DHT22;13129;48.012;10.352;2023-01-31T20:49:27;1.50;99.90
25170;DHT22;13129;48.012;10.352;2023-01-31T20:51:53;1.50;99.90
25170;DHT22;13129;48.012;10.352;2023-01-31T20:54:18;1.60;99.90
25170;DHT22;13129;48.012;10.352;2023-01-31T20:56:44;1.60;99.90
25170;DHT22;13129;48.012;10.352;2023-01-31T20:59:09;1.60;99.90
25170;DHT22;13129;48.012;10.352;2023-01-31T21:01:35;1.70;99.90
25170;DHT22;13129;48.012;10.352;2023-01-31T21:04:01;1.70;99.90
25170;DHT22;13129;48.012;10.352;2023-01-31T21:06:28;1.80;99.90
25170;DHT22;13129;48.012;10.352;2023-01-31T21:08:53;1.70;99.90
25170;DHT22;13129;48.012;10.352;2023-01-31T21:11:21;1.70;99.90
25170;DHT22;13129;48.012;10.352;2023-01-31T21:13:46;1.80;99.90
25170;DHT22;13129;48.012;10.352;2023-01-31T21:16:12;1.70;99.90
25170;DHT22;13129;48.012;10.352;2023-01-31T21:18:41;1.70;99.90
25170;DHT22;13129;48.012;10.352;2023-01-31T21:21:14;1.60;99.90
25170;DHT22;13129;48.012;10.352;2023-01-31T21:23:46;1.70;99.90
25170;DHT22;13129;48.012;10.352;2023-01-31T21:26:12;1.60;99.90
25170;DHT22;13129;48.012;10.352;2023-01-31T21:28:38;1.60;99.90
25170;DHT22;13129;48.012;10.352;2023-01-31T21:31:09;1.60;99.90
25170;DHT22;13129;48.012;10.352;2023-01-31T21:33:47;1.70;99.90
25170;DHT22;13129;48.012;10.352;2023-01-31T21:36:16;1.70;99.90
25170;DHT22;13129;48.012;10.352;2023-01-31T21:38:42;1.80;99.90
25170;DHT22;13129;48.012;10.352;2023-01-31T21:41:08;1.70;99.90
25170;DHT22;13129;48.012;10.352;2023-01-31T21:43:54;1.80;99.90
25170;DHT22;13129;48.012;10.352;2023-01-31T21:46:19;1.80;99.90
25170;DHT22;13129;48.012;10.352;2023-01-31T21:48:45;1.80;99.90
25170;DHT22;13129;48.012;10.352;2023-01-31T21:51:13;1.80;99.90
25170;DHT22;13129;48.012;10.352;2023-01-31T21:53:39;1.80;99.90
25170;DHT22;13129;48.012;10.352;2023-01-31T21:56:09;1.80;99.90
25170;DHT22;13129;48.012;10.352;2023-01-31T21:58:36;1.80;99.90
25170;DHT22;13129;48.012;10.352;2023-01-31T22:01:08;1.90;99.90
25170;DHT22;13129;48.012;10.352;2023-01-31T22:03:35;1.90;99.90
25170;DHT22;13129;48.012;10.352;2023-01-31T22:06:07;2.00;99.90
25170;DHT22;13129;48.012;10.352;2023-01-31T22:08:33;1.80;99.90
25170;DHT22;13129;48.012;10.352;2023-01-31T22:11:11;1.90;99.90
25170;DHT22;13129;48.012;10.352;2023-01-31T22:13:39;1.80;99.90
25170;DHT22;13129;48.012;10.352;2023-01-31T22:16:08;1.80;99.90
25170;DHT22;13129;48.012;10.352;2023-01-31T22:18:35;1.90;99.90
25170;DHT22;13129;48.012;10.352;2023-01-31T22:21:13;1.90;99.90
25170;DHT22;13129;48.012;10.352;2023-01-31T22:23:43;1.80;99.90